Time;durP1;ratioP1;P1;durP2;ratioP2;P2;SDS_P1;SDS_P2;PMS_P1;PMS_P2;Temp;Humidity;BMP_temperature;BMP_pressure;BME280_temperature;BME280_humidity;BME280_pressure;Samples;Min_cycle;Max_cycle;Signal;HPM_P1;HPM_P2
2021/10/29 00:01:40;;;;;;;17.70;14.07;;;7.60;99.90;;;;;;5040467;28;20237;-54
2021/10/29 00:04:06;;;;;;;17.47;15.07;;;8.00;99.90;;;;;;5046560;28;20563;-53
2021/10/29 00:06:32;;;;;;;17.17;15.00;;;8.00;99.90;;;;;;5046905;28;20204;-54
2021/10/29 00:08:57;;;;;;;16.30;13.87;;;7.70;99.90;;;;;;5046291;28;20205;-52
2021/10/29 00:11:23;;;;;;;18.70;14.90;;;7.60;99.90;;;;;;5049148;28;20190;-53
2021/10/29 00:13:49;;;;;;;16.20;13.60;;;7.80;99.90;;;;;;5047610;28;20235;-53
2021/10/29 00:16:15;;;;;;;16.23;14.53;;;7.70;99.90;;;;;;5053871;28;20190;-51
2021/10/29 00:18:40;;;;;;;17.87;13.83;;;8.00;99.90;;;;;;5049797;28;20443;-53
2021/10/29 00:21:06;;;;;;;17.50;15.03;;;7.30;99.90;;;;;;5042861;28;20339;-52
2021/10/29 00:23:32;;;;;;;17.70;14.80;;;7.60;99.90;;;;;;5043805;28;20181;-53
2021/10/29 00:26:00;;;;;;;18.70;15.30;;;7.50;99.90;;;;;;5046093;28;20182;-53
2021/10/29 00:28:26;;;;;;;17.08;14.10;;;7.70;99.90;;;;;;5048899;28;20178;-53
2021/10/29 00:30:53;;;;;;;18.50;15.20;;;7.80;99.90;;;;;;5045992;28;20201;-53
2021/10/29 00:33:18;;;;;;;19.90;14.82;;;7.70;99.90;;;;;;5042270;28;20281;-53
2021/10/29 00:35:44;;;;;;;16.10;14.13;;;7.20;99.90;;;;;;5038866;28;20310;-53
2021/10/29 00:38:10;;;;;;;20.17;16.10;;;7.30;99.90;;;;;;5049841;28;20219;-53
2021/10/29 00:40:39;;;;;;;18.95;16.13;;;7.30;99.90;;;;;;5045967;28;20547;-53
2021/10/29 00:43:06;;;;;;;18.77;15.38;;;7.30;99.90;;;;;;5042196;28;20672;-53
2021/10/29 00:45:33;;;;;;;21.85;16.05;;;6.70;99.90;;;;;;5049344;28;20201;-54
2021/10/29 00:47:59;;;;;;;19.52;14.50;;;7.40;99.90;;;;;;5049936;28;20294;-54
2021/10/29 00:50:24;;;;;;;17.10;15.10;;;7.00;99.90;;;;;;5044619;28;20697;-53
2021/10/29 00:52:50;;;;;;;16.37;14.63;;;7.10;99.90;;;;;;5046341;28;20223;-52
2021/10/29 00:55:16;;;;;;;17.10;14.57;;;7.20;99.90;;;;;;5046868;28;20178;-53
2021/10/29 00:57:42;;;;;;;17.03;14.60;;;7.20;99.90;;;;;;5042221;28;20223;-53
2021/10/29 01:00:10;;;;;;;19.00;16.17;;;7.30;99.90;;;;;;5041994;28;20202;-53
2021/10/29 01:02:36;;;;;;;21.10;17.10;;;7.30;99.90;;;;;;5048743;28;20193;-53
2021/10/29 01:05:04;;;;;;;20.77;15.90;;;7.20;99.90;;;;;;5047656;28;20193;-53
2021/10/29 01:07:31;;;;;;;19.70;15.27;;;7.30;99.90;;;;;;5048959;28;20226;-53
2021/10/29 01:09:57;;;;;;;16.00;14.23;;;7.20;99.90;;;;;;5054401;28;20225;-53
2021/10/29 01:12:22;;;;;;;15.67;13.40;;;7.30;99.90;;;;;;5046835;28;20251;-53
2021/10/29 01:14:59;;;;;;;16.43;13.90;;;7.40;99.90;;;;;;5045806;28;20193;-54
2021/10/29 01:17:26;;;;;;;18.55;14.80;;;7.30;99.90;;;;;;5035855;28;20227;-53
2021/10/29 01:19:55;;;;;;;18.92;15.27;;;7.20;99.90;;;;;;5036492;28;20244;-52
2021/10/29 01:22:22;;;;;;;20.33;15.23;;;6.80;99.90;;;;;;5044209;28;20196;-53
2021/10/29 01:24:49;;;;;;;20.20;15.77;;;6.80;99.90;;;;;;5031132;28;20189;-52
2021/10/29 01:27:16;;;;;;;20.40;14.30;;;7.40;99.90;;;;;;5036126;28;20194;-54
2021/10/29 01:29:44;;;;;;;17.15;14.95;;;7.40;99.90;;;;;;5048821;28;20774;-53
2021/10/29 01:32:11;;;;;;;18.20;15.73;;;6.80;99.90;;;;;;5047053;28;20681;-53
2021/10/29 01:34:38;;;;;;;20.55;15.57;;;7.30;99.90;;;;;;5040870;28;20216;-53
2021/10/29 01:37:09;;;;;;;20.30;15.35;;;7.20;99.90;;;;;;5044361;28;20206;-53
2021/10/29 01:39:35;;;;;;;17.48;15.43;;;7.50;99.90;;;;;;5037771;28;20276;-52
2021/10/29 01:42:01;;;;;;;18.75;14.65;;;7.00;99.90;;;;;;5043091;28;20194;-52
2021/10/29 01:44:27;;;;;;;16.58;14.50;;;7.00;99.90;;;;;;5044211;28;20556;-53
2021/10/29 01:46:53;;;;;;;19.50;16.20;;;7.10;99.90;;;;;;5049397;28;20201;-52
2021/10/29 01:49:18;;;;;;;19.10;16.00;;;7.00;99.90;;;;;;5048456;28;20248;-53
2021/10/29 01:51:45;;;;;;;18.70;15.40;;;7.10;99.90;;;;;;5048740;28;20239;-53
2021/10/29 01:54:11;;;;;;;19.63;16.60;;;7.10;99.90;;;;;;5037952;28;20200;-53
2021/10/29 01:56:38;;;;;;;20.10;15.90;;;6.80;99.90;;;;;;5048515;28;20212;-53
2021/10/29 01:59:04;;;;;;;21.13;16.75;;;7.00;99.90;;;;;;5044394;28;20233;-53
2021/10/29 02:01:29;;;;;;;19.00;15.55;;;7.10;99.90;;;;;;5052924;28;20192;-53
2021/10/29 02:03:55;;;;;;;20.00;15.90;;;6.90;99.90;;;;;;5044990;28;20192;-53
2021/10/29 02:06:21;;;;;;;20.10;16.73;;;6.40;99.90;;;;;;5050099;28;20537;-53
2021/10/29 02:08:48;;;;;;;20.00;15.47;;;6.80;99.90;;;;;;5049959;28;20442;-52
2021/10/29 02:11:14;;;;;;;18.48;15.68;;;6.70;99.90;;;;;;5048353;28;20198;-53
2021/10/29 02:13:40;;;;;;;19.92;16.30;;;7.10;99.90;;;;;;5046149;28;20186;-53
2021/10/29 02:16:06;;;;;;;18.73;15.65;;;7.00;99.90;;;;;;5045373;28;20197;-53
2021/10/29 02:18:32;;;;;;;18.08;14.82;;;7.20;99.90;;;;;;5049157;28;20181;-54
2021/10/29 02:20:58;;;;;;;17.10;14.43;;;7.00;99.90;;;;;;5047574;28;20203;-54
2021/10/29 02:23:25;;;;;;;20.77;14.73;;;6.50;99.90;;;;;;5048960;28;20185;-54
2021/10/29 02:25:51;;;;;;;17.17;14.15;;;7.00;99.90;;;;;;5043881;28;20187;-53
2021/10/29 02:28:19;;;;;;;17.10;14.10;;;7.00;99.90;;;;;;5044365;28;20633;-53
2021/10/29 02:30:46;;;;;;;16.63;14.38;;;7.20;99.90;;;;;;5044508;28;20822;-52
2021/10/29 02:33:13;;;;;;;18.30;14.77;;;6.90;99.90;;;;;;5044637;28;20186;-53
2021/10/29 02:35:39;;;;;;;18.27;15.40;;;6.90;99.90;;;;;;5040990;28;20205;-53
2021/10/29 02:38:05;;;;;;;17.73;14.70;;;6.90;99.90;;;;;;5048236;28;20213;-53
2021/10/29 02:40:31;;;;;;;16.60;13.73;;;6.60;99.90;;;;;;5047007;28;20745;-52
2021/10/29 02:42:57;;;;;;;15.50;13.30;;;6.50;99.90;;;;;;5050609;28;20287;-52
2021/10/29 02:45:23;;;;;;;19.40;14.00;;;6.80;99.90;;;;;;5043866;28;20447;-52
2021/10/29 02:47:49;;;;;;;18.97;14.17;;;6.70;99.90;;;;;;5050511;28;20295;-51
2021/10/29 02:50:16;;;;;;;15.07;13.47;;;6.80;99.90;;;;;;5048088;28;20465;-53
2021/10/29 02:52:42;;;;;;;19.58;14.82;;;6.40;99.90;;;;;;5049137;28;20975;-54
2021/10/29 02:55:09;;;;;;;20.35;13.25;;;6.80;99.90;;;;;;5044081;28;20200;-53
2021/10/29 02:57:36;;;;;;;15.23;12.30;;;6.90;99.90;;;;;;5050093;28;20271;-53
2021/10/29 03:00:08;;;;;;;15.60;13.48;;;6.70;99.90;;;;;;5046894;28;20255;-53
2021/10/29 03:02:35;;;;;;;16.42;13.50;;;6.60;99.90;;;;;;5048686;28;20184;-52
2021/10/29 03:05:01;;;;;;;18.17;14.60;;;6.60;99.90;;;;;;5049468;28;20667;-53
2021/10/29 03:07:27;;;;;;;15.43;13.82;;;6.60;99.90;;;;;;5052928;28;20192;-52
2021/10/29 03:09:54;;;;;;;16.73;14.00;;;6.40;99.90;;;;;;5044727;28;20310;-52
2021/10/29 03:12:20;;;;;;;15.35;13.60;;;6.50;99.90;;;;;;5049723;28;20189;-53
2021/10/29 03:14:46;;;;;;;16.73;14.23;;;6.80;99.90;;;;;;5047946;28;20609;-53
2021/10/29 03:17:11;;;;;;;17.03;14.33;;;6.50;99.90;;;;;;5051092;28;20829;-52
2021/10/29 03:19:37;;;;;;;15.23;13.60;;;6.40;99.90;;;;;;5045208;28;20215;-52
2021/10/29 03:22:03;;;;;;;18.30;14.27;;;6.50;99.90;;;;;;5046898;28;20657;-52
2021/10/29 03:24:29;;;;;;;20.30;14.63;;;6.50;99.90;;;;;;5047577;28;20452;-51
2021/10/29 03:26:54;;;;;;;17.07;13.87;;;6.40;99.90;;;;;;5044219;28;20192;-53
2021/10/29 03:29:20;;;;;;;16.63;14.73;;;6.30;99.90;;;;;;5047516;28;20208;-53
2021/10/29 03:31:46;;;;;;;20.00;14.23;;;5.70;99.90;;;;;;5043021;28;20266;-53
2021/10/29 03:34:12;;;;;;;22.53;12.73;;;6.40;99.90;;;;;;5051333;28;20450;-52
2021/10/29 03:36:38;;;;;;;17.77;13.67;;;6.40;99.90;;;;;;5041704;28;20217;-53
2021/10/29 03:39:09;;;;;;;15.15;13.30;;;5.70;99.90;;;;;;5047455;28;20227;-53
2021/10/29 03:41:41;;;;;;;17.00;13.05;;;6.20;99.90;;;;;;5038124;28;20263;-53
2021/10/29 03:46:52;;;;;;;15.43;12.23;;;6.20;99.90;;;;;;5044532;28;20207;-53
2021/10/29 03:49:25;;;;;;;17.27;13.30;;;6.50;99.90;;;;;;5049923;28;20212;-52
2021/10/29 03:51:56;;;;;;;15.60;12.52;;;5.70;99.90;;;;;;5051187;28;20205;-53
2021/10/29 03:54:27;;;;;;;17.23;13.25;;;5.90;99.90;;;;;;5049674;28;20677;-52
2021/10/29 03:56:58;;;;;;;16.70;13.73;;;6.20;99.90;;;;;;5047072;28;20827;-53
2021/10/29 03:59:23;;;;;;;16.77;12.80;;;6.20;99.90;;;;;;5042934;28;20209;-53
2021/10/29 04:01:49;;;;;;;14.97;12.67;;;6.30;99.90;;;;;;5037939;28;20706;-55
2021/10/29 04:04:15;;;;;;;18.73;15.20;;;6.30;99.90;;;;;;5043415;28;20267;-56
2021/10/29 04:06:41;;;;;;;16.60;14.00;;;5.70;99.90;;;;;;5048494;28;20487;-52
2021/10/29 04:09:06;;;;;;;18.97;15.17;;;6.30;99.90;;;;;;5048194;28;20216;-52
2021/10/29 04:11:39;;;;;;;17.30;14.93;;;6.40;99.90;;;;;;5046173;28;20206;-53
2021/10/29 04:14:11;;;;;;;15.68;12.95;;;6.30;99.90;;;;;;5042748;28;21074;-52
2021/10/29 04:16:38;;;;;;;16.58;13.60;;;6.20;99.90;;;;;;5047235;28;20224;-55
2021/10/29 04:19:05;;;;;;;16.77;14.18;;;5.90;99.90;;;;;;5045870;28;20212;-54
2021/10/29 04:21:32;;;;;;;18.58;14.50;;;6.30;99.90;;;;;;5046630;28;20181;-54
2021/10/29 04:23:58;;;;;;;16.38;13.35;;;6.30;99.90;;;;;;5047161;28;20276;-55
2021/10/29 04:26:24;;;;;;;17.63;13.27;;;6.40;99.90;;;;;;5043810;28;20796;-53
2021/10/29 04:28:55;;;;;;;20.63;15.93;;;6.10;99.90;;;;;;5048926;28;20484;-52
2021/10/29 04:31:24;;;;;;;19.95;14.23;;;6.10;99.90;;;;;;5037672;28;20736;-53
2021/10/29 04:33:50;;;;;;;16.35;14.10;;;6.00;99.90;;;;;;5037428;28;20223;-54
2021/10/29 04:36:17;;;;;;;17.38;14.00;;;6.00;99.90;;;;;;5039241;28;20184;-54
2021/10/29 04:38:42;;;;;;;19.95;15.65;;;6.00;99.90;;;;;;5039869;28;20219;-53
2021/10/29 04:41:08;;;;;;;20.27;16.00;;;6.20;99.90;;;;;;5036366;28;20274;-52
2021/10/29 04:43:34;;;;;;;20.77;16.73;;;5.60;99.90;;;;;;5036809;28;20459;-56
2021/10/29 04:46:00;;;;;;;22.27;15.80;;;6.30;99.90;;;;;;5037264;28;20195;-54
2021/10/29 04:48:25;;;;;;;21.20;16.40;;;5.50;99.90;;;;;;5047126;28;20195;-53
2021/10/29 04:50:51;;;;;;;18.13;15.27;;;6.30;99.90;;;;;;5044084;28;20580;-52
2021/10/29 04:53:17;;;;;;;18.73;15.37;;;6.10;99.90;;;;;;5047787;28;20799;-52
2021/10/29 04:55:43;;;;;;;18.03;15.30;;;6.40;99.90;;;;;;5048322;28;20247;-54
2021/10/29 04:58:09;;;;;;;16.93;14.50;;;6.20;99.90;;;;;;5049796;28;20466;-54
2021/10/29 05:00:36;;;;;;;18.50;14.70;;;6.30;99.90;;;;;;5045485;28;20201;-55
2021/10/29 05:03:02;;;;;;;17.80;15.05;;;6.40;99.90;;;;;;5045551;28;20182;-54
2021/10/29 05:05:28;;;;;;;20.17;15.30;;;5.70;99.90;;;;;;5036160;28;20188;-53
2021/10/29 05:07:54;;;;;;;18.52;14.65;;;6.30;99.90;;;;;;5050500;28;20204;-53
2021/10/29 05:10:20;;;;;;;19.10;14.40;;;6.40;99.90;;;;;;5046455;28;20217;-53
2021/10/29 05:12:46;;;;;;;18.30;16.13;;;6.20;99.90;;;;;;5057324;28;20450;-54
2021/10/29 05:15:13;;;;;;;19.00;16.02;;;6.40;99.90;;;;;;5035683;28;20458;-52
2021/10/29 05:17:41;;;;;;;19.60;15.60;;;6.40;99.90;;;;;;5037364;28;20220;-53
2021/10/29 05:20:07;;;;;;;19.35;15.18;;;6.20;99.90;;;;;;5046501;28;20204;-53
2021/10/29 05:22:33;;;;;;;17.25;13.80;;;6.30;99.90;;;;;;5047269;28;20265;-53
2021/10/29 05:24:59;;;;;;;18.17;14.33;;;6.20;99.90;;;;;;5035867;28;20179;-53
2021/10/29 05:27:24;;;;;;;18.90;15.77;;;5.70;99.90;;;;;;5040682;28;20184;-52
2021/10/29 05:29:50;;;;;;;19.07;14.70;;;6.30;99.90;;;;;;5045013;28;20708;-52
2021/10/29 05:32:16;;;;;;;22.50;15.97;;;6.20;99.90;;;;;;5043294;28;20281;-52
2021/10/29 05:34:41;;;;;;;19.60;16.30;;;6.20;99.90;;;;;;5043366;28;20192;-53
2021/10/29 05:37:07;;;;;;;17.83;14.17;;;6.10;99.90;;;;;;5035587;28;20843;-51
2021/10/29 05:39:33;;;;;;;18.13;15.40;;;6.20;99.90;;;;;;5037665;28;20585;-53
2021/10/29 05:41:59;;;;;;;18.00;15.00;;;6.20;99.90;;;;;;5042026;28;20274;-52
2021/10/29 05:44:25;;;;;;;21.52;16.27;;;5.70;99.90;;;;;;5045052;28;20669;-53
2021/10/29 05:46:51;;;;;;;18.53;14.77;;;6.30;99.90;;;;;;5042023;28;20191;-52
2021/10/29 05:49:17;;;;;;;18.03;15.13;;;6.40;99.90;;;;;;5044549;28;20971;-51
2021/10/29 05:51:53;;;;;;;17.08;13.38;;;6.00;99.90;;;;;;5059635;22;20862;-56
2021/10/29 05:56:58;;;;;;;21.98;15.75;;;6.30;99.90;;;;;;5031768;28;20211;-56
2021/10/29 05:59:24;;;;;;;20.58;15.93;;;6.30;99.90;;;;;;5031930;28;20333;-55
2021/10/29 06:01:50;;;;;;;22.52;15.45;;;6.30;99.90;;;;;;5010466;28;20556;-55
2021/10/29 06:04:16;;;;;;;20.80;15.57;;;6.10;99.90;;;;;;5023331;28;20187;-55
2021/10/29 06:06:41;;;;;;;17.90;16.00;;;6.30;99.90;;;;;;5035950;28;20267;-55
2021/10/29 06:09:07;;;;;;;21.70;15.73;;;6.20;99.90;;;;;;5027711;28;20229;-57
2021/10/29 06:11:33;;;;;;;18.00;14.63;;;6.50;99.90;;;;;;5023143;28;20196;-60
2021/10/29 06:13:58;;;;;;;21.43;16.30;;;6.90;99.90;;;;;;5029193;28;20817;-52
2021/10/29 06:16:25;;;;;;;17.57;14.53;;;7.10;99.90;;;;;;5031312;28;20194;-53
2021/10/29 06:18:52;;;;;;;17.45;13.90;;;7.10;99.90;;;;;;5030410;28;20189;-53
2021/10/29 06:21:22;;;;;;;20.70;14.15;;;6.80;99.90;;;;;;5029052;28;20647;-53
2021/10/29 06:24:10;;;;;;;17.75;15.38;;;6.90;99.90;;;;;;5031961;28;20193;-53
2021/10/29 06:29:20;;;;;;;17.83;14.93;;;7.20;99.90;;;;;;5028875;28;20213;-54
2021/10/29 06:31:46;;;;;;;18.17;15.57;;;6.80;99.90;;;;;;5025927;28;20186;-53
2021/10/29 06:34:12;;;;;;;17.23;14.67;;;6.70;99.90;;;;;;5025102;28;20406;-53
2021/10/29 06:36:39;;;;;;;17.73;14.63;;;6.90;99.90;;;;;;5024185;28;20464;-56
2021/10/29 06:39:06;;;;;;;17.48;15.10;;;7.00;99.90;;;;;;5027055;28;20290;-55
2021/10/29 06:41:32;;;;;;;18.77;15.00;;;6.80;99.90;;;;;;5011243;28;20437;-54
2021/10/29 06:49:10;;;;;;;16.27;13.20;;;7.20;99.90;;;;;;5035093;28;20216;-53
2021/10/29 07:40:19;;;;;;;15.25;13.65;;;8.90;99.90;;;;;;5030100;28;20216;-54
2021/10/29 07:45:18;;;;;;;16.05;13.57;;;9.00;99.90;;;;;;5030278;28;20449;-56
2021/10/29 07:47:45;;;;;;;13.57;12.13;;;9.00;99.90;;;;;;5028404;28;20582;-57
2021/10/29 07:50:14;;;;;;;19.27;14.13;;;9.10;99.90;;;;;;5027638;28;20199;-57
2021/10/29 07:52:42;;;;;;;17.05;13.68;;;9.10;99.90;;;;;;5027057;28;20194;-58
2021/10/29 07:55:10;;;;;;;16.52;14.80;;;9.10;99.90;;;;;;5029991;28;20185;-56
2021/10/29 07:57:36;;;;;;;18.63;14.27;;;9.20;99.90;;;;;;5026882;28;20194;-55
2021/10/29 08:00:05;;;;;;;14.90;12.63;;;9.40;99.90;;;;;;5023790;28;20207;-55
2021/10/29 08:02:31;;;;;;;17.25;13.90;;;9.40;99.90;;;;;;5026884;28;20601;-55
2021/10/29 08:04:58;;;;;;;15.38;13.40;;;9.50;99.90;;;;;;5018890;28;20179;-55
2021/10/29 08:07:23;;;;;;;18.80;14.35;;;9.70;99.90;;;;;;5019360;28;20836;-54
2021/10/29 08:09:49;;;;;;;15.83;13.40;;;9.80;99.90;;;;;;5025845;28;20300;-55
2021/10/29 08:12:16;;;;;;;14.87;13.30;;;9.50;99.90;;;;;;5023169;28;20547;-54
2021/10/29 08:14:43;;;;;;;15.60;12.98;;;10.00;99.90;;;;;;5017457;28;20471;-55
2021/10/29 08:17:09;;;;;;;15.77;13.35;;;10.30;99.90;;;;;;5023456;28;20659;-55
2021/10/29 08:19:35;;;;;;;15.37;13.17;;;10.50;99.90;;;;;;5022955;28;20252;-55
2021/10/29 08:22:01;;;;;;;14.43;12.93;;;10.80;99.90;;;;;;5027922;28;20917;-55
2021/10/29 08:24:28;;;;;;;14.30;12.80;;;10.80;99.90;;;;;;5024475;28;20180;-54
2021/10/29 08:26:57;;;;;;;16.33;12.75;;;10.90;99.90;;;;;;5029460;28;20193;-54
2021/10/29 08:29:23;;;;;;;14.30;12.90;;;11.00;99.90;;;;;;5029464;28;20761;-54
2021/10/29 08:31:51;;;;;;;16.10;13.68;;;11.00;99.90;;;;;;5028675;28;20515;-54
2021/10/29 08:34:18;;;;;;;15.02;13.52;;;11.00;99.90;;;;;;5029295;28;20188;-54
2021/10/29 08:36:45;;;;;;;13.38;11.98;;;11.20;99.90;;;;;;5025217;28;20243;-55
2021/10/29 08:39:13;;;;;;;15.23;12.32;;;11.00;99.90;;;;;;5029909;28;20731;-55
2021/10/29 08:41:40;;;;;;;15.90;13.00;;;11.70;99.90;;;;;;5028686;28;20651;-55
2021/10/29 08:44:06;;;;;;;13.50;12.20;;;11.70;99.90;;;;;;5022500;28;20207;-56
2021/10/29 08:46:33;;;;;;;14.00;12.60;;;11.80;99.90;;;;;;5031733;28;20189;-55
2021/10/29 08:48:59;;;;;;;13.52;11.98;;;11.90;99.90;;;;;;5023761;28;20827;-54
2021/10/29 08:51:27;;;;;;;13.48;12.13;;;11.80;99.90;;;;;;5026819;28;20202;-54
2021/10/29 08:53:55;;;;;;;12.63;11.35;;;11.90;99.90;;;;;;5029191;28;20206;-55
2021/10/29 08:56:21;;;;;;;14.40;11.82;;;11.80;99.90;;;;;;5029322;28;20246;-55
2021/10/29 08:59:12;;;;;;;14.00;12.55;;;12.30;99.90;;;;;;5020139;28;20272;-55
2021/10/29 09:05:18;;;;;;;16.13;12.00;;;12.70;99.90;;;;;;5022223;28;20688;-55
2021/10/29 09:07:56;;;;;;;12.07;10.88;;;13.00;99.90;;;;;;5014918;28;20640;-55
2021/10/29 09:32:37;;;;;;;15.65;12.50;;;13.90;99.00;;;;;;5019745;28;20232;-55
2021/10/29 09:35:10;;;;;;;14.40;12.48;;;13.40;98.80;;;;;;5030292;28;20276;-53
2021/10/29 09:38:07;;;;;;;13.35;11.57;;;13.20;99.30;;;;;;5030385;28;20635;-53
2021/10/29 09:40:37;;;;;;;13.85;12.20;;;13.30;99.70;;;;;;5030177;28;20285;-54
2021/10/29 09:43:13;;;;;;;13.85;12.45;;;13.20;99.90;;;;;;5035479;28;20300;-55
2021/10/29 09:45:49;;;;;;;13.57;11.95;;;13.40;99.90;;;;;;5027459;28;20189;-56
2021/10/29 09:48:20;;;;;;;12.93;11.63;;;13.50;99.90;;;;;;5032677;28;20188;-57
2021/10/29 09:50:54;;;;;;;14.05;11.65;;;13.40;99.90;;;;;;5033586;28;20202;-56
2021/10/29 09:58:53;;;;;;;13.35;12.15;;;13.60;99.90;;;;;;5025825;28;20225;-54
2021/10/29 10:01:24;;;;;;;14.38;12.38;;;13.80;99.90;;;;;;5030115;28;20662;-54
2021/10/29 10:03:50;;;;;;;17.73;12.50;;;13.90;99.90;;;;;;5029738;28;20235;-54
2021/10/29 10:06:25;;;;;;;13.27;11.95;;;14.00;99.80;;;;;;5022121;28;20186;-54
2021/10/29 10:08:56;;;;;;;12.95;11.55;;;14.00;99.90;;;;;;5029734;28;20182;-54
2021/10/29 10:11:23;;;;;;;15.23;12.00;;;14.40;99.20;;;;;;5028414;28;20200;-54
2021/10/29 10:13:52;;;;;;;13.68;12.02;;;15.10;98.10;;;;;;5025876;28;20190;-54
2021/10/29 10:16:18;;;;;;;13.45;12.18;;;14.80;97.00;;;;;;5026667;28;20182;-54
2021/10/29 10:18:44;;;;;;;13.67;12.37;;;15.50;97.10;;;;;;5028257;28;20228;-53
2021/10/29 10:21:14;;;;;;;14.23;12.70;;;15.50;97.10;;;;;;5028741;28;20736;-53
2021/10/29 10:23:46;;;;;;;13.63;12.32;;;15.80;97.00;;;;;;5032666;28;20667;-52
2021/10/29 10:29:13;;;;;;;16.27;12.93;;;15.80;96.40;;;;;;5036138;28;20298;-52
2021/10/29 10:46:06;;;;;;;12.60;11.43;;;18.60;91.60;;;;;;5023165;28;20201;-55
2021/10/29 10:48:39;;;;;;;12.68;11.48;;;19.00;90.60;;;;;;5026222;28;20221;-54
2021/10/29 10:54:18;;;;;;;12.52;11.43;;;19.60;89.10;;;;;;5021766;28;20206;-55
2021/10/29 10:57:16;;;;;;;12.20;11.10;;;20.00;88.30;;;;;;5031065;28;20216;-55
2021/10/29 11:11:19;;;;;;;14.25;11.60;;;19.70;87.10;;;;;;5030649;28;20210;-54
2021/10/29 11:13:49;;;;;;;12.50;11.20;;;19.50;86.90;;;;;;5027104;28;20198;-55
2021/10/29 11:16:27;;;;;;;10.90;9.90;;;19.30;87.60;;;;;;5031395;28;20186;-54
2021/10/29 11:19:24;;;;;;;11.13;9.70;;;19.20;88.10;;;;;;5032508;28;20194;-55
2021/10/29 11:21:54;;;;;;;12.45;11.25;;;18.90;89.20;;;;;;5028123;28;20185;-55
2021/10/29 11:24:37;;;;;;;12.93;11.73;;;18.60;90.30;;;;;;5030907;28;20174;-55
2021/10/29 11:27:11;;;;;;;11.88;10.20;;;18.60;90.30;;;;;;5030275;28;20200;-54
2021/10/29 11:29:54;;;;;;;11.10;10.00;;;18.30;90.20;;;;;;5029564;28;20205;-55
2021/10/29 11:32:25;;;;;;;11.80;10.63;;;18.20;90.60;;;;;;5028680;28;20651;-55
2021/10/29 11:34:58;;;;;;;13.05;11.27;;;18.00;90.90;;;;;;5028210;28;20179;-55
2021/10/29 11:37:25;;;;;;;9.70;8.80;;;18.00;91.00;;;;;;5035703;28;20206;-55
2021/10/29 11:39:50;;;;;;;11.90;10.30;;;17.90;90.60;;;;;;5030447;28;20202;-56
2021/10/29 11:42:22;;;;;;;12.07;10.83;;;17.80;91.30;;;;;;5030564;28;20182;-55
2021/10/29 11:44:50;;;;;;;12.60;11.40;;;17.90;91.50;;;;;;5028634;28;20444;-56
2021/10/29 11:47:16;;;;;;;21.65;19.30;;;17.80;91.90;;;;;;5030103;28;20186;-56
2021/10/29 11:49:42;;;;;;;27.07;22.80;;;17.70;92.00;;;;;;5028816;28;20236;-55
2021/10/29 11:52:09;;;;;;;12.80;11.40;;;17.90;92.10;;;;;;5019262;28;20452;-56
2021/10/29 11:54:41;;;;;;;12.10;11.00;;;17.50;92.20;;;;;;5020315;28;20286;-56
2021/10/29 12:08:19;;;;;;;9.85;8.55;;;17.70;93.40;;;;;;5026676;28;20189;-54
2021/10/29 12:10:47;;;;;;;11.02;9.15;;;17.60;92.40;;;;;;5032028;28;20208;-54
2021/10/29 12:13:13;;;;;;;10.18;9.15;;;17.60;92.00;;;;;;5019667;28;20197;-54
2021/10/29 12:15:39;;;;;;;10.33;9.33;;;17.20;91.70;;;;;;5028095;28;20617;-54
2021/10/29 12:18:06;;;;;;;10.55;9.63;;;17.70;92.10;;;;;;5027137;28;20228;-55
2021/10/29 12:20:46;;;;;;;8.73;7.93;;;18.00;92.50;;;;;;5011007;28;20554;-55
2021/10/29 12:23:23;;;;;;;10.00;9.10;;;18.00;91.20;;;;;;5016335;28;20184;-55
2021/10/29 12:31:10;;;;;;;11.40;10.40;;;18.10;92.20;;;;;;5023324;28;20650;-55
2021/10/29 12:53:30;;;;;;;6.28;5.70;;;18.30;86.50;;;;;;5022751;28;20249;-53
2021/10/29 13:01:35;;;;;;;6.05;5.22;;;18.30;85.60;;;;;;5025516;28;20653;-53
2021/10/29 13:04:05;;;;;;;5.10;4.70;;;18.40;84.60;;;;;;5024765;28;20371;-55
2021/10/29 13:06:33;;;;;;;6.75;5.25;;;18.40;84.80;;;;;;5022991;28;20579;-54
2021/10/29 13:09:00;;;;;;;5.82;5.22;;;18.50;84.30;;;;;;5034943;28;20615;-52
2021/10/29 13:11:26;;;;;;;9.60;6.95;;;18.50;82.90;;;;;;5026078;28;20211;-53
2021/10/29 13:14:01;;;;;;;7.40;6.55;;;18.40;84.40;;;;;;5025071;28;20204;-52
2021/10/29 13:16:28;;;;;;;5.70;5.20;;;18.20;83.50;;;;;;5017420;28;20374;-52
2021/10/29 13:37:21;;;;;;;8.63;7.00;;;18.30;87.50;;;;;;5019520;28;20209;-52
2021/10/29 13:51:07;;;;;;;7.78;7.18;;;18.20;87.30;;;;;;5025444;28;20278;-52
2021/10/29 13:59:02;;;;;;;7.28;6.65;;;18.00;90.50;;;;;;5030153;28;20201;-52
2021/10/29 14:01:58;;;;;;;6.47;5.88;;;18.10;89.30;;;;;;5025402;28;20219;-51
2021/10/29 14:28:50;;;;;;;8.25;7.30;;;17.60;90.40;;;;;;5030596;28;20712;-52
2021/10/29 14:34:14;;;;;;;7.18;6.53;;;17.60;91.60;;;;;;5022815;28;20194;-52
2021/10/29 14:36:45;;;;;;;7.05;6.47;;;17.60;91.40;;;;;;5023620;28;20190;-52
2021/10/29 14:39:21;;;;;;;9.02;7.10;;;17.40;91.40;;;;;;5031392;28;20195;-52
2021/10/29 14:41:59;;;;;;;7.07;6.38;;;17.50;92.10;;;;;;5027065;28;20644;-53
2021/10/29 14:44:33;;;;;;;10.18;8.90;;;17.40;93.00;;;;;;5031127;28;20185;-52
2021/10/29 14:47:28;;;;;;;7.82;7.03;;;17.00;93.30;;;;;;5032176;28;20185;-52
2021/10/29 15:16:12;;;;;;;10.60;9.60;;;16.00;97.10;;;;;;5019545;28;20512;-52
2021/10/29 15:26:53;;;;;;;7.93;7.15;;;15.50;97.60;;;;;;5030740;28;20204;-52
2021/10/29 15:30:27;;;;;;;12.77;8.60;;;15.60;98.20;;;;;;5028155;28;20210;-53
2021/10/29 15:45:53;;;;;;;10.15;8.43;;;15.10;99.90;;;;;;5025610;28;20221;-50
2021/10/29 15:48:26;;;;;;;12.50;10.73;;;14.30;99.90;;;;;;5028774;28;20235;-51
2021/10/29 15:50:52;;;;;;;8.60;7.70;;;14.60;99.90;;;;;;5024167;28;20991;-52
2021/10/29 15:53:18;;;;;;;10.67;7.77;;;14.60;99.90;;;;;;5032098;28;20194;-51
2021/10/29 15:55:53;;;;;;;9.18;8.23;;;14.70;99.90;;;;;;5030324;28;20190;-51
2021/10/29 16:19:37;;;;;;;11.25;7.95;;;13.50;99.90;;;;;;5024775;28;20198;-50
2021/10/29 16:22:06;;;;;;;9.05;8.18;;;13.70;99.90;;;;;;5026222;28;20179;-51
2021/10/29 16:24:34;;;;;;;9.35;8.45;;;13.40;99.90;;;;;;5024573;28;20194;-52
2021/10/29 16:27:00;;;;;;;10.60;8.95;;;13.50;99.90;;;;;;5025151;28;20663;-51
2021/10/29 16:29:26;;;;;;;10.57;9.57;;;13.30;99.90;;;;;;5027715;28;20379;-52
2021/10/29 16:31:55;;;;;;;10.80;8.90;;;13.10;99.90;;;;;;5026869;28;20437;-52
2021/10/29 16:34:20;;;;;;;12.05;10.43;;;13.40;99.90;;;;;;5021552;28;20228;-52
2021/10/29 16:36:47;;;;;;;9.57;8.67;;;13.20;99.90;;;;;;5027416;28;20295;-51
2021/10/29 16:39:13;;;;;;;10.82;8.25;;;13.20;99.90;;;;;;5022472;28;20245;-52
2021/10/29 16:41:40;;;;;;;9.53;8.63;;;13.00;99.90;;;;;;5028935;28;20721;-52
2021/10/29 16:44:05;;;;;;;13.90;9.90;;;13.20;99.90;;;;;;5027952;28;20477;-52
2021/10/29 16:46:31;;;;;;;11.70;10.37;;;13.10;99.90;;;;;;5029821;28;20286;-51
2021/10/29 16:48:57;;;;;;;10.90;9.20;;;12.80;99.90;;;;;;5025598;28;20205;-51
2021/10/29 16:51:25;;;;;;;10.20;9.20;;;12.80;99.90;;;;;;5026340;28;20205;-51
2021/10/29 16:53:51;;;;;;;11.40;9.90;;;12.50;99.90;;;;;;5029134;28;20517;-50
2021/10/29 16:56:17;;;;;;;10.80;9.20;;;12.60;99.90;;;;;;5028836;28;21865;-51
2021/10/29 16:58:42;;;;;;;10.43;8.40;;;12.50;99.90;;;;;;5024473;28;20234;-51
2021/10/29 17:01:09;;;;;;;11.10;9.30;;;12.50;99.90;;;;;;5030945;28;20186;-51
2021/10/29 17:03:35;;;;;;;11.98;10.35;;;12.60;99.90;;;;;;5029523;28;20656;-51
2021/10/29 17:06:00;;;;;;;9.73;8.77;;;12.20;99.90;;;;;;5024512;28;20191;-51
2021/10/29 17:08:26;;;;;;;10.73;8.43;;;12.30;99.90;;;;;;5027577;28;20443;-51
2021/10/29 17:10:53;;;;;;;10.75;8.88;;;12.30;99.90;;;;;;5023481;28;20212;-51
2021/10/29 17:13:18;;;;;;;9.52;8.55;;;12.20;99.90;;;;;;5028846;28;20187;-51
2021/10/29 17:15:44;;;;;;;10.03;9.03;;;12.20;99.90;;;;;;5027007;28;20675;-51
2021/10/29 17:18:11;;;;;;;11.67;10.47;;;12.20;99.90;;;;;;5033492;28;20966;-51
2021/10/29 17:20:37;;;;;;;11.32;9.60;;;12.00;99.90;;;;;;5025773;28;20195;-52
2021/10/29 17:23:04;;;;;;;10.88;9.88;;;11.80;99.90;;;;;;5029502;28;20573;-52
2021/10/29 17:25:30;;;;;;;12.55;11.27;;;12.00;99.90;;;;;;5030624;28;20204;-51
2021/10/29 17:27:56;;;;;;;13.68;10.35;;;11.90;99.90;;;;;;5021264;28;20187;-51
2021/10/29 17:30:22;;;;;;;16.45;12.40;;;11.80;99.90;;;;;;5023995;28;20220;-51
2021/10/29 17:32:49;;;;;;;13.33;10.27;;;11.90;99.90;;;;;;5023691;28;20627;-52
2021/10/29 17:35:16;;;;;;;12.02;10.82;;;12.00;99.90;;;;;;5024358;28;20664;-51
2021/10/29 17:37:42;;;;;;;15.27;11.77;;;11.90;99.90;;;;;;5026291;28;20238;-52
2021/10/29 17:40:09;;;;;;;12.43;10.30;;;11.60;99.90;;;;;;5027506;28;20220;-51
2021/10/29 17:42:36;;;;;;;11.52;10.15;;;11.70;99.90;;;;;;5028844;28;20186;-52